Terminal Aerodrome Forecast
Issued by NWS Missoula, MT

Home | Current Version | Previous Version | Text Only | Print | Product List | Glossary On
Versions: 1 2 3 4 5 6 7 8 9 10 11 12 13 14 15 16 17 18 19 20 21
000
FTUS45 KMSO 300039 AAA
TAFMSO
TAF AMD
KMSO 300039Z 3001/3024 15011G18KT 6SM -SHRA BKN035
     FM300130 18008KT P6SM VCSH BKN080
     FM300400 VRB04KT P6SM SCT100
     FM302100 31015G25KT P6SM VCSH BKN100=

USA.gov is the U.S. government's official web portal to all federal, state and local government web resources and services.